createdAt,value
2022-09-24T00:01:42.483Z,5.53
2022-09-24T00:04:12.867Z,5.97
2022-09-24T00:06:42.705Z,6.97
2022-09-24T00:09:11.518Z,7.88
2022-09-24T00:11:40.251Z,11.70
2022-09-24T00:14:08.388Z,6.63
2022-09-24T00:16:39.934Z,8.82
2022-09-24T00:19:07.802Z,5.72
2022-09-24T00:21:37.663Z,7.03
2022-09-24T00:24:07.758Z,6.57
2022-09-24T00:26:49.970Z,14.57
2022-09-24T00:29:19.504Z,5.88
2022-09-24T00:31:49.672Z,6.78
2022-09-24T00:34:17.680Z,7.75
2022-09-24T00:36:46.206Z,5.78
2022-09-24T00:39:14.536Z,7.50
2022-09-24T00:41:48.022Z,6.18
2022-09-24T00:44:48.197Z,8.48
2022-09-24T00:47:32.084Z,7.70
2022-09-24T00:50:08.586Z,5.93
2022-09-24T00:52:41.198Z,6.85
2022-09-24T00:55:10.396Z,6.40
2022-09-24T00:57:39.584Z,4.90
2022-09-24T01:00:08.697Z,7.13
2022-09-24T01:02:40.215Z,5.53
2022-09-24T01:05:10.230Z,6.70
2022-09-24T01:07:38.252Z,4.95
2022-09-24T01:10:06.966Z,6.57
2022-09-24T01:12:45.159Z,5.72
2022-09-24T01:15:21.636Z,5.53
2022-09-24T01:18:01.292Z,6.35
2022-09-24T01:20:54.283Z,5.22
2022-09-24T01:23:56.648Z,5.68
2022-09-24T01:26:48.866Z,4.97
2022-09-24T01:29:42.098Z,5.95
2022-09-24T01:32:18.311Z,6.35
2022-09-24T01:34:51.156Z,6.60
2022-09-24T01:37:23.133Z,7.15
2022-09-24T01:39:53.224Z,6.32
2022-09-24T01:42:23.037Z,7.70
2022-09-24T01:44:52.663Z,4.93
2022-09-24T01:47:33.505Z,7.10
2022-09-24T01:50:03.655Z,7.07
2022-09-24T01:52:35.911Z,4.53
2022-09-24T01:55:06.495Z,5.07
2022-09-24T01:57:39.928Z,5.22
2022-09-24T02:02:47.158Z,5.72
2022-09-24T02:05:22.822Z,6.30
2022-09-24T02:07:58.424Z,5.20
2022-09-24T02:10:29.862Z,7.47
2022-09-24T02:13:03.741Z,4.70
2022-09-24T02:15:35.067Z,5.10
2022-09-24T02:18:07.478Z,7.63
2022-09-24T02:20:37.028Z,6.80
2022-09-24T02:23:07.090Z,6.00
2022-09-24T02:25:39.940Z,5.88
2022-09-24T02:28:08.260Z,6.35
2022-09-24T02:30:42.914Z,5.40
2022-09-24T02:33:27.796Z,4.82
2022-09-24T02:35:55.757Z,5.97
2022-09-24T02:38:24.128Z,5.25
2022-09-24T02:40:52.596Z,6.65
2022-09-24T02:43:20.569Z,5.53
2022-09-24T02:45:49.724Z,5.40
2022-09-24T02:48:17.669Z,8.38
2022-09-24T02:50:45.494Z,7.43
2022-09-24T02:53:13.494Z,4.95
2022-09-24T02:55:41.313Z,5.30
2022-09-24T02:58:09.138Z,7.18
2022-09-24T03:00:36.982Z,9.10
2022-09-24T03:03:06.223Z,5.80
2022-09-24T03:05:34.130Z,7.20
2022-09-24T03:08:02.339Z,6.20
2022-09-24T03:10:30.176Z,6.10
2022-09-24T03:12:58.179Z,5.43
2022-09-24T03:15:26.077Z,4.07
2022-09-24T03:17:55.060Z,5.88
2022-09-24T03:20:24.309Z,5.15
2022-09-24T03:22:52.421Z,4.35
2022-09-24T03:25:20.499Z,4.45
2022-09-24T03:27:48.477Z,4.97
2022-09-24T03:30:34.146Z,4.85
2022-09-24T03:33:02.007Z,7.20
2022-09-24T03:35:31.158Z,5.68
2022-09-24T03:37:59.003Z,5.13
2022-09-24T03:40:26.958Z,8.02
2022-09-24T03:42:54.861Z,5.10
2022-09-24T03:45:22.662Z,6.22
2022-09-24T03:47:50.487Z,6.28
2022-09-24T03:50:18.446Z,4.68
2022-09-24T03:52:47.694Z,6.15
2022-09-24T03:55:15.621Z,4.07
2022-09-24T03:57:43.427Z,4.13
2022-09-24T04:00:12.645Z,5.05
2022-09-24T04:02:40.694Z,5.13
2022-09-24T04:05:09.174Z,5.30
2022-09-24T04:07:36.989Z,5.38
2022-09-24T04:10:07.037Z,5.10
2022-09-24T04:12:34.854Z,5.00
2022-09-24T04:15:03.392Z,4.95
2022-09-24T04:17:31.490Z,5.85
2022-09-24T04:19:59.410Z,4.38
2022-09-24T04:22:29.061Z,4.75
2022-09-24T04:24:57.852Z,7.05
2022-09-24T04:27:27.097Z,5.00
2022-09-24T04:29:55.184Z,4.55
2022-09-24T04:32:23.061Z,3.35
2022-09-24T04:34:50.909Z,5.85
2022-09-24T04:37:18.747Z,5.30
2022-09-24T04:39:46.588Z,5.38
2022-09-24T04:42:18.046Z,4.45
2022-09-24T04:44:48.839Z,4.25
2022-09-24T04:47:19.190Z,3.53
2022-09-24T04:49:46.997Z,6.03
2022-09-24T04:52:16.088Z,5.95
2022-09-24T04:54:47.231Z,4.88
2022-09-24T04:57:15.989Z,4.18
2022-09-24T04:59:44.309Z,5.53
2022-09-24T05:02:13.501Z,7.38
2022-09-24T05:04:41.417Z,6.72
2022-09-24T05:07:09.247Z,7.97
2022-09-24T05:09:37.141Z,7.25
2022-09-24T05:12:06.199Z,4.43
2022-09-24T05:14:34.033Z,4.65
2022-09-24T05:17:01.859Z,5.22
2022-09-24T05:19:31.011Z,5.65
2022-09-24T05:21:58.892Z,3.92
2022-09-24T05:24:26.719Z,7.22
2022-09-24T05:27:10.257Z,4.93
2022-09-24T05:29:39.444Z,3.58
2022-09-24T05:32:08.898Z,5.22
2022-09-24T05:34:38.087Z,4.47
2022-09-24T05:37:06.133Z,5.63
2022-09-24T05:39:34.495Z,3.83
2022-09-24T05:42:04.241Z,5.35
2022-09-24T05:44:32.301Z,5.45
2022-09-24T05:47:00.412Z,5.03
2022-09-24T05:49:28.289Z,5.07
2022-09-24T05:51:57.462Z,3.85
2022-09-24T05:54:25.315Z,3.88
2022-09-24T05:56:53.162Z,5.65
2022-09-24T05:59:21.078Z,4.90
2022-09-24T06:01:49.135Z,4.35
2022-09-24T06:04:17.419Z,3.65
2022-09-24T06:06:45.252Z,4.10
2022-09-24T06:09:14.630Z,6.95
2022-09-24T06:11:42.516Z,4.72
2022-09-24T06:14:11.225Z,4.22
2022-09-24T06:16:39.137Z,6.70
2022-09-24T06:19:07.177Z,6.90
2022-09-24T06:21:35.033Z,6.60
2022-09-24T06:24:03.224Z,4.25
2022-09-24T06:26:33.100Z,5.40
2022-09-24T06:29:04.963Z,6.38
2022-09-24T06:31:34.665Z,5.38
2022-09-24T06:34:03.581Z,7.57
2022-09-24T06:36:31.456Z,3.63
2022-09-24T06:38:59.541Z,7.55
2022-09-24T06:41:27.447Z,5.28
2022-09-24T06:43:57.240Z,4.20
2022-09-24T06:46:25.866Z,8.25
2022-09-24T06:48:54.862Z,4.95
2022-09-24T06:51:22.704Z,5.70
2022-09-24T06:53:52.514Z,6.07
2022-09-24T06:56:20.499Z,5.45
2022-09-24T06:58:48.345Z,5.70
2022-09-24T07:01:17.641Z,5.80
2022-09-24T07:03:45.524Z,6.10
2022-09-24T07:06:15.764Z,3.47
2022-09-24T07:08:44.901Z,7.30
2022-09-24T07:11:15.812Z,7.32
2022-09-24T07:13:43.653Z,4.07
2022-09-24T07:16:11.493Z,6.75
2022-09-24T07:18:40.714Z,5.30
2022-09-24T07:21:08.519Z,7.75
2022-09-24T07:23:36.354Z,5.43
2022-09-24T07:26:04.181Z,9.18
2022-09-24T07:28:32.070Z,4.53
2022-09-24T07:31:01.035Z,4.97
2022-09-24T07:33:29.222Z,3.58
2022-09-24T07:35:58.426Z,6.95
2022-09-24T07:38:26.931Z,5.10
2022-09-24T07:40:58.950Z,3.50
2022-09-24T07:43:28.541Z,4.72
2022-09-24T07:45:56.808Z,4.40
2022-09-24T07:48:24.687Z,5.53
2022-09-24T07:50:52.560Z,5.03
2022-09-24T07:53:22.342Z,6.05
2022-09-24T07:55:50.200Z,5.78
2022-09-24T07:58:18.744Z,4.25
2022-09-24T08:00:46.907Z,4.50
2022-09-24T08:03:16.277Z,4.60
2022-09-24T08:05:46.056Z,4.57
2022-09-24T08:08:14.609Z,3.58
2022-09-24T08:10:43.964Z,6.40
2022-09-24T08:13:12.141Z,3.38
2022-09-24T08:15:40.220Z,4.78
2022-09-24T08:18:08.138Z,5.07
2022-09-24T08:20:38.169Z,5.00
2022-09-24T08:23:07.877Z,6.55
2022-09-24T08:25:35.714Z,4.80
2022-09-24T08:28:05.799Z,5.85
2022-09-24T08:30:34.640Z,9.30
2022-09-24T08:33:03.937Z,5.65
2022-09-24T08:35:31.827Z,3.53
2022-09-24T08:38:01.205Z,7.53
2022-09-24T08:40:32.324Z,4.75
2022-09-24T08:43:10.751Z,5.20
2022-09-24T08:46:03.160Z,4.55
2022-09-24T08:48:35.338Z,4.10
2022-09-24T08:51:09.477Z,4.43
2022-09-24T08:53:46.157Z,3.97
2022-09-24T08:56:14.681Z,4.32
2022-09-24T08:58:49.838Z,6.93
2022-09-24T09:01:27.958Z,7.80
2022-09-24T09:04:03.436Z,4.03
2022-09-24T09:06:54.543Z,6.45
2022-09-24T09:09:24.958Z,8.45
2022-09-24T09:11:58.991Z,8.13
2022-09-24T09:14:41.938Z,5.28
2022-09-24T09:17:20.176Z,4.78
2022-09-24T09:19:55.185Z,3.60
2022-09-24T09:22:27.290Z,4.93
2022-09-24T09:25:03.879Z,5.53
2022-09-24T09:27:32.825Z,5.43
2022-09-24T09:30:09.166Z,4.53
2022-09-24T09:32:54.104Z,3.58
2022-09-24T09:35:30.612Z,4.38
2022-09-24T09:38:06.481Z,3.92
2022-09-24T09:40:40.494Z,6.28
2022-09-24T09:43:11.057Z,5.68
2022-09-24T09:45:47.663Z,6.97
2022-09-24T09:48:16.492Z,4.10
2022-09-24T09:50:47.533Z,3.70
2022-09-24T09:53:24.105Z,5.97
2022-09-24T09:55:54.323Z,3.15
2022-09-24T09:58:25.178Z,3.42
2022-09-24T10:01:03.833Z,3.75
2022-09-24T10:03:34.309Z,3.55
2022-09-24T10:06:04.149Z,2.90
2022-09-24T10:08:32.450Z,3.00
2022-09-24T10:11:01.955Z,2.92
2022-09-24T10:13:31.627Z,3.33
2022-09-24T10:16:03.665Z,4.43
2022-09-24T10:18:34.435Z,6.20
2022-09-24T10:21:05.117Z,4.22
2022-09-24T10:23:37.424Z,6.43
2022-09-24T10:26:06.221Z,3.90
2022-09-24T10:28:53.828Z,4.20
2022-09-24T10:31:25.074Z,5.03
2022-09-24T10:33:56.699Z,4.30
2022-09-24T10:39:15.518Z,3.97
2022-09-24T10:41:47.958Z,4.55
2022-09-24T10:44:17.018Z,4.67
2022-09-24T10:47:16.418Z,5.60
2022-09-24T10:50:04.057Z,4.60
2022-09-24T10:52:45.293Z,3.70
2022-09-24T10:55:26.711Z,4.03
2022-09-24T10:58:03.876Z,4.43
2022-09-24T11:00:39.834Z,6.80
2022-09-24T11:03:32.321Z,6.15
2022-09-24T11:06:03.437Z,5.68
2022-09-24T11:08:52.229Z,4.90
2022-09-24T11:11:31.248Z,4.13
2022-09-24T11:14:13.206Z,4.20
2022-09-24T11:17:32.253Z,4.55
2022-09-24T11:20:28.788Z,4.70
2022-09-24T11:23:17.649Z,5.47
2022-09-24T11:25:53.866Z,4.60
2022-09-24T11:28:36.023Z,7.90
2022-09-24T11:31:13.214Z,5.70
2022-09-24T11:34:08.525Z,5.28
2022-09-24T11:36:52.609Z,6.85
2022-09-24T11:39:32.487Z,5.60
2022-09-24T11:42:07.290Z,8.63
2022-09-24T11:45:04.008Z,5.35
2022-09-24T11:47:47.973Z,5.43
2022-09-24T11:50:30.560Z,5.13
2022-09-24T11:53:06.781Z,5.85
2022-09-24T11:55:39.168Z,6.32
2022-09-24T11:58:16.664Z,5.65
2022-09-24T12:00:52.056Z,6.10
2022-09-24T12:03:26.327Z,5.38
2022-09-24T12:06:01.487Z,6.45
2022-09-24T12:08:38.121Z,6.65
2022-09-24T12:11:12.666Z,7.35
2022-09-24T12:13:43.738Z,5.50
2022-09-24T12:16:14.259Z,5.20
2022-09-24T12:18:51.328Z,7.10
2022-09-24T12:21:24.952Z,6.30
2022-09-24T12:24:18.858Z,8.40
2022-09-24T12:26:46.200Z,5.90
2022-09-24T12:29:54.000Z,6.28
2022-09-24T12:32:44.890Z,4.90
2022-09-24T12:35:23.055Z,6.15
2022-09-24T12:37:56.128Z,7.28
2022-09-24T12:40:50.348Z,6.68
2022-09-24T12:43:26.107Z,6.88
2022-09-24T12:46:00.883Z,5.72
2022-09-24T12:48:30.317Z,8.20
2022-09-24T12:51:00.764Z,5.05
2022-09-24T12:53:35.247Z,6.70
2022-09-24T12:56:06.889Z,7.15
2022-09-24T12:58:39.543Z,8.93
2022-09-24T13:01:13.425Z,7.55
2022-09-24T13:03:48.787Z,6.95
2022-09-24T13:06:31.287Z,7.53
2022-09-24T13:08:59.225Z,6.32
2022-09-24T13:11:31.324Z,5.22
2022-09-24T13:14:02.481Z,6.35
2022-09-24T13:16:32.185Z,6.45
2022-09-24T13:19:02.753Z,5.65
2022-09-24T13:21:32.050Z,7.32
2022-09-24T13:23:59.969Z,7.18
2022-09-24T13:26:33.699Z,5.18
2022-09-24T13:29:03.254Z,6.63
2022-09-24T13:31:41.718Z,5.70
2022-09-24T13:34:20.836Z,5.72
2022-09-24T13:36:53.787Z,5.88
2022-09-24T13:39:25.012Z,5.40
2022-09-24T13:42:01.874Z,6.70
2022-09-24T13:44:34.335Z,5.13
2022-09-24T13:47:14.307Z,5.63
2022-09-24T13:49:45.478Z,5.93
2022-09-24T13:52:22.554Z,6.95
2022-09-24T13:54:54.497Z,5.97
2022-09-24T13:57:26.132Z,6.05
2022-09-24T14:00:15.497Z,8.20
2022-09-24T14:02:52.389Z,5.72
2022-09-24T14:05:21.664Z,26.40
2022-09-24T14:07:59.415Z,4.60
2022-09-24T14:10:27.531Z,6.30
2022-09-24T14:13:10.646Z,5.70
2022-09-24T14:15:38.597Z,6.00
2022-09-24T14:18:12.105Z,5.65
2022-09-24T14:20:40.947Z,6.97
2022-09-24T14:23:18.691Z,4.72
2022-09-24T14:25:49.485Z,6.63
2022-09-24T14:28:19.515Z,5.07
2022-09-24T14:30:53.358Z,4.60
2022-09-24T14:33:25.749Z,5.35
2022-09-24T14:35:55.289Z,5.75
2022-09-24T14:38:26.329Z,6.38
2022-09-24T14:40:59.666Z,5.38
2022-09-24T14:46:05.148Z,4.38
2022-09-24T14:48:34.611Z,5.20
2022-09-24T14:51:03.002Z,5.68
2022-09-24T14:53:34.600Z,4.97
2022-09-24T14:56:08.244Z,5.05
2022-09-24T14:58:37.953Z,4.85
2022-09-24T15:01:14.028Z,6.18
2022-09-24T15:03:44.807Z,5.13
2022-09-24T15:06:21.324Z,6.20
2022-09-24T15:09:00.516Z,5.95
2022-09-24T15:11:31.401Z,5.55
2022-09-24T15:14:02.964Z,6.82
2022-09-24T15:16:33.991Z,6.25
2022-09-24T15:19:19.590Z,6.72
2022-09-24T15:21:48.440Z,7.35
2022-09-24T15:24:16.597Z,7.05
2022-09-24T15:26:46.973Z,7.05
2022-09-24T15:29:23.897Z,8.60
2022-09-24T15:31:51.966Z,6.15
2022-09-24T15:34:20.643Z,7.07
2022-09-24T15:36:49.410Z,6.63
2022-09-24T15:39:24.180Z,6.93
2022-09-24T15:41:52.005Z,5.93
2022-09-24T15:44:23.715Z,7.32
2022-09-24T15:46:52.292Z,7.78
2022-09-24T15:49:23.727Z,7.20
2022-09-24T15:51:54.384Z,8.07
2022-09-24T15:54:24.653Z,7.20
2022-09-24T15:56:53.608Z,6.78
2022-09-24T15:59:23.720Z,7.65
2022-09-24T16:01:54.187Z,8.98
2022-09-24T16:04:22.178Z,7.75
2022-09-24T16:06:50.531Z,8.05
2022-09-24T16:09:18.390Z,9.02
2022-09-24T16:11:46.771Z,9.15
2022-09-24T16:14:14.654Z,10.35
2022-09-24T16:16:43.814Z,9.85
2022-09-24T16:19:12.422Z,10.68
2022-09-24T16:21:40.557Z,10.48
2022-09-24T16:24:08.394Z,11.02
2022-09-24T16:26:37.327Z,9.30
2022-09-24T16:29:05.995Z,11.07
2022-09-24T16:31:34.146Z,10.48
2022-09-24T16:34:03.357Z,11.10
2022-09-24T16:36:31.530Z,10.68
2022-09-24T16:39:00.091Z,10.13
2022-09-24T16:41:30.755Z,11.55
2022-09-24T16:43:58.677Z,10.88
2022-09-24T16:46:26.611Z,12.45
2022-09-24T16:48:54.688Z,13.55
2022-09-24T16:51:23.959Z,13.38
2022-09-24T16:53:55.295Z,11.07
2022-09-24T16:56:23.457Z,11.10
2022-09-24T16:58:52.462Z,11.30
2022-09-24T17:01:22.187Z,13.23
2022-09-24T17:03:52.426Z,14.80
2022-09-24T17:06:21.237Z,15.88
2022-09-24T17:09:08.714Z,15.90
2022-09-24T17:11:36.923Z,17.13
2022-09-24T17:14:05.380Z,17.08
2022-09-24T17:16:33.585Z,16.70
2022-09-24T17:19:01.673Z,17.42
2022-09-24T17:21:29.623Z,16.35
2022-09-24T17:23:58.809Z,17.67
2022-09-24T17:26:26.766Z,19.27
2022-09-24T17:28:55.396Z,18.40
2022-09-24T17:31:25.430Z,21.05
2022-09-24T17:33:57.104Z,16.63
2022-09-24T17:36:25.858Z,18.95
2022-09-24T17:38:54.270Z,21.40
2022-09-24T17:41:24.197Z,22.13
2022-09-24T17:43:52.883Z,20.27
2022-09-24T17:46:22.563Z,23.30
2022-09-24T17:48:52.585Z,20.08
2022-09-24T17:51:22.623Z,22.52
2022-09-24T17:53:51.618Z,20.70
2022-09-24T17:56:20.460Z,21.17
2022-09-24T17:58:49.918Z,21.70
2022-09-24T18:01:19.883Z,19.90
2022-09-24T18:03:49.532Z,20.00
2022-09-24T18:06:17.483Z,23.65
2022-09-24T18:08:46.988Z,22.48
2022-09-24T18:11:17.364Z,30.20
2022-09-24T18:13:45.865Z,24.83
2022-09-24T18:16:17.196Z,22.77
2022-09-24T18:18:45.493Z,26.33
2022-09-24T18:21:15.326Z,26.00
2022-09-24T18:23:43.378Z,23.52
2022-09-24T18:26:13.143Z,25.23
2022-09-24T18:28:42.165Z,27.23
2022-09-24T18:31:11.131Z,27.75
2022-09-24T18:33:42.398Z,26.50
2022-09-24T18:36:12.833Z,22.95
2022-09-24T18:38:40.836Z,25.33
2022-09-24T18:41:10.639Z,25.13
2022-09-24T18:43:38.765Z,23.50
2022-09-24T18:46:08.713Z,24.35
2022-09-24T18:48:36.798Z,24.10
2022-09-24T18:51:07.335Z,25.67
2022-09-24T18:53:35.356Z,23.05
2022-09-24T18:56:06.956Z,22.52
2022-09-24T18:58:35.017Z,25.77
2022-09-24T19:01:04.450Z,23.80
2022-09-24T19:03:32.551Z,25.83
2022-09-24T19:06:02.571Z,26.77
2022-09-24T19:08:32.183Z,24.48
2022-09-24T19:11:04.802Z,25.20
2022-09-24T19:13:32.718Z,23.67
2022-09-24T19:16:05.646Z,24.58
2022-09-24T19:18:34.380Z,26.67
2022-09-24T19:21:03.600Z,25.77
2022-09-24T19:23:33.234Z,28.50
2022-09-24T19:26:02.536Z,26.70
2022-09-24T19:28:30.674Z,25.95
2022-09-24T19:30:58.850Z,27.05
2022-09-24T19:33:26.833Z,25.77
2022-09-24T19:35:56.556Z,30.00
2022-09-24T19:38:26.067Z,30.42
2022-09-24T19:41:02.001Z,28.02
2022-09-24T19:43:31.034Z,30.23
2022-09-24T19:46:00.667Z,27.40
2022-09-24T19:48:30.056Z,30.13
2022-09-24T19:51:01.174Z,25.50
2022-09-24T19:53:31.307Z,29.25
2022-09-24T19:56:00.915Z,26.75
2022-09-24T19:58:28.997Z,29.30
2022-09-24T20:01:01.549Z,28.13
2022-09-24T20:03:29.619Z,28.40
2022-09-24T20:05:57.461Z,31.55
2022-09-24T20:08:25.479Z,35.30
2022-09-24T20:10:53.461Z,28.92
2022-09-24T20:13:22.661Z,29.45
2022-09-24T20:15:58.738Z,28.33
2022-09-24T20:18:26.917Z,25.15
2022-09-24T20:20:55.256Z,21.70
2022-09-24T20:23:24.447Z,25.00
2022-09-24T20:26:10.375Z,22.15
2022-09-24T20:28:40.081Z,22.88
2022-09-24T20:31:10.925Z,20.13
2022-09-24T20:33:41.069Z,21.40
2022-09-24T20:36:15.456Z,18.60
2022-09-24T20:38:47.235Z,17.80
2022-09-24T20:41:16.784Z,16.27
2022-09-24T20:43:46.329Z,15.90
2022-09-24T20:46:17.495Z,13.63
2022-09-24T20:48:45.617Z,15.45
2022-09-24T20:51:17.502Z,17.40
2022-09-24T20:53:45.762Z,16.50
2022-09-24T20:56:17.056Z,15.80
2022-09-24T20:58:49.171Z,13.93
2022-09-24T21:01:17.531Z,12.02
2022-09-24T21:03:46.211Z,12.10
2022-09-24T21:06:16.561Z,12.48
2022-09-24T21:08:45.920Z,10.65
2022-09-24T21:11:15.973Z,11.25
2022-09-24T21:13:49.979Z,10.60
2022-09-24T21:16:20.567Z,11.55
2022-09-24T21:18:49.603Z,10.40
2022-09-24T21:21:19.388Z,10.55
2022-09-24T21:23:49.276Z,10.70
2022-09-24T21:26:18.938Z,12.27
2022-09-24T21:28:50.479Z,14.55
2022-09-24T21:31:20.951Z,10.50
2022-09-24T21:33:52.483Z,10.10
2022-09-24T21:36:21.947Z,11.32
2022-09-24T21:38:54.999Z,9.60
2022-09-24T21:41:23.454Z,10.35
2022-09-24T21:43:53.449Z,9.40
2022-09-24T21:46:21.547Z,10.57
2022-09-24T21:48:49.550Z,11.13
2022-09-24T21:51:21.495Z,12.70
2022-09-24T21:53:49.854Z,11.43
2022-09-24T21:56:18.718Z,12.43
2022-09-24T21:58:46.814Z,10.88
2022-09-24T22:01:18.749Z,11.48
2022-09-24T22:03:47.394Z,11.80
2022-09-24T22:06:15.485Z,10.88
2022-09-24T22:08:45.419Z,9.90
2022-09-24T22:11:13.820Z,8.88
2022-09-24T22:13:42.455Z,11.95
2022-09-24T22:16:12.468Z,10.57
2022-09-24T22:18:41.765Z,10.27
2022-09-24T22:21:11.448Z,11.13
2022-09-24T22:23:39.850Z,10.43
2022-09-24T22:26:09.007Z,10.13
2022-09-24T22:28:37.892Z,10.27
2022-09-24T22:31:07.718Z,12.60
2022-09-24T22:33:53.611Z,13.45
2022-09-24T22:36:23.395Z,12.18
2022-09-24T22:38:52.912Z,9.85
2022-09-24T22:41:21.284Z,11.13
2022-09-24T22:43:49.244Z,9.82
2022-09-24T22:46:18.102Z,9.52
2022-09-24T22:48:47.351Z,9.32
2022-09-24T22:51:16.080Z,10.80
2022-09-24T22:53:45.505Z,10.73
2022-09-24T22:56:14.982Z,9.73
2022-09-24T22:58:45.036Z,15.48
2022-09-24T23:01:15.139Z,9.63
2022-09-24T23:03:44.116Z,8.48
2022-09-24T23:06:12.883Z,12.25
2022-09-24T23:08:42.350Z,11.77
2022-09-24T23:11:14.298Z,8.68
2022-09-24T23:13:43.972Z,10.52
2022-09-24T23:16:14.029Z,9.20
2022-09-24T23:18:43.544Z,8.88
2022-09-24T23:21:14.086Z,10.32
2022-09-24T23:23:42.298Z,7.43
2022-09-24T23:26:16.580Z,10.57
2022-09-24T23:28:45.966Z,7.68
2022-09-24T23:31:16.153Z,8.65
2022-09-24T23:33:44.358Z,6.90
2022-09-24T23:36:13.659Z,8.45
2022-09-24T23:38:41.805Z,6.40
2022-09-24T23:41:12.016Z,6.95
2022-09-24T23:43:41.126Z,7.85
2022-09-24T23:46:09.580Z,7.20
2022-09-24T23:48:37.577Z,6.88
2022-09-24T23:51:05.944Z,7.68
2022-09-24T23:53:34.643Z,7.90
2022-09-24T23:56:03.077Z,5.95
2022-09-24T23:58:32.338Z,8.85
